Main page
METAR-TAF:

METAR-TAF

Airports :

Valladolid Airport

Valladolid, Spain

latitude: 41-43N, longitude: 004-51W, elevation: 849 m

Current weather observation

The report was made 37 minutes ago, at 21:30 UTC
Wind 5 kt from the South/Southwest
Temperature 11°C
Humidity 71%
Pressure 1018 hPa
Visibility 10 km or more
no clouds below 1500 m and no cumulonimbus

METAR: LEVD 052130Z AUTO 21005KT CAVOK 11/06 Q1018

Time: 00:07 (22:07 UTC)

Forecast

The report was made 2 hours and 7 minutes ago, at 20:00 UTC
Forecast valid from 05 at 21 UTC to 06 at 21 UTC
Wind 4 kt from variable directions
Visibility 10 km or more
no clouds below 1500 m and no cumulonimbus
Becoming
from 06 at 08 UTC to 06 at 10 UTC
Wind 12 kt from the West/Southwest

TAF: LEVD 052000Z 0521/0621 VRB04KT CAVOK TX22/0615Z TN04/0605Z BECMG 0608/0610 24012KT

Weather observations and forecasts of more than 4000 airports (METAR and TAF reports).

The available stations are represented by yellow and red dots on the map.

Hover mouse over dot to see the name of the station.

Then click to see weather observations and forecasts.

To change the map : click on the green buttons with a black cross to zoom in, on the green button with a dash to zoom out, or on the green arrows for adjacent maps.


METAR-TAF: